createdAt,value
2022-10-11T00:00:13.263Z,2.72
2022-10-11T00:02:40.205Z,4.53
2022-10-11T00:05:08.173Z,2.88
2022-10-11T00:07:37.181Z,2.67
2022-10-11T00:10:06.308Z,1.50
2022-10-11T00:12:33.272Z,3.90
2022-10-11T00:15:00.144Z,7.78
2022-10-11T00:17:27.485Z,7.55
2022-10-11T00:19:54.383Z,6.45
2022-10-11T00:22:21.275Z,3.08
2022-10-11T00:24:48.174Z,2.47
2022-10-11T00:27:15.233Z,4.53
2022-10-11T00:29:42.116Z,4.80
2022-10-11T00:32:09.022Z,3.45
2022-10-11T00:34:35.981Z,3.35
2022-10-11T00:37:03.106Z,2.72
2022-10-11T00:39:30.023Z,3.58
2022-10-11T00:41:56.951Z,5.63
2022-10-11T00:44:27.607Z,5.45
2022-10-11T00:47:05.956Z,2.22
2022-10-11T00:50:02.155Z,5.68
2022-10-11T00:52:37.742Z,4.13
2022-10-11T00:55:12.662Z,4.95
2022-10-11T00:57:44.401Z,3.35
2022-10-11T01:00:14.860Z,2.67
2022-10-11T01:02:43.081Z,3.42
2022-10-11T01:05:30.274Z,4.30
2022-10-11T01:08:00.124Z,3.35
2022-10-11T01:10:28.024Z,2.28
2022-10-11T01:13:31.246Z,2.25
2022-10-11T01:16:12.224Z,2.42
2022-10-11T01:19:05.951Z,2.17
2022-10-11T01:21:50.631Z,2.40
2022-10-11T01:25:13.759Z,4.80
2022-10-11T01:28:21.803Z,3.88
2022-10-11T01:30:50.874Z,3.20
2022-10-11T01:33:39.261Z,2.10
2022-10-11T01:36:34.534Z,7.40
2022-10-11T01:39:12.632Z,2.00
2022-10-11T01:41:47.689Z,2.80
2022-10-11T01:44:15.709Z,4.50
2022-10-11T01:46:42.613Z,1.55
2022-10-11T01:49:10.347Z,2.22
2022-10-11T01:51:47.112Z,1.48
2022-10-11T01:54:50.188Z,4.28
2022-10-11T01:57:56.467Z,6.72
2022-10-11T02:00:26.526Z,2.53
2022-10-11T02:03:21.371Z,2.20
2022-10-11T02:06:09.471Z,4.30
2022-10-11T02:09:05.765Z,1.52
2022-10-11T02:11:35.952Z,3.53
2022-10-11T02:14:20.932Z,3.67
2022-10-11T02:17:01.334Z,6.95
2022-10-11T02:19:35.905Z,2.63
2022-10-11T02:22:09.634Z,2.72
2022-10-11T02:24:40.172Z,3.63
2022-10-11T02:27:09.415Z,6.53
2022-10-11T02:29:40.082Z,5.80
2022-10-11T02:32:08.087Z,3.53
2022-10-11T02:34:45.114Z,4.75
2022-10-11T02:37:42.510Z,6.47
2022-10-11T02:40:30.493Z,3.50
2022-10-11T02:43:08.791Z,6.00
2022-10-11T02:45:41.765Z,2.53
2022-10-11T02:48:11.419Z,5.55
2022-10-11T02:50:40.331Z,4.07
2022-10-11T02:53:08.499Z,4.47
2022-10-11T02:55:35.984Z,8.02
2022-10-11T02:58:03.391Z,7.55
2022-10-11T03:00:30.736Z,7.13
2022-10-11T03:02:57.612Z,10.50
2022-10-11T03:05:24.504Z,9.18
2022-10-11T03:07:51.390Z,9.98
2022-10-11T03:10:18.302Z,9.20
2022-10-11T03:12:45.237Z,9.02
2022-10-11T03:15:12.168Z,6.22
2022-10-11T03:17:39.079Z,9.93
2022-10-11T03:20:07.259Z,14.25
2022-10-11T03:22:34.163Z,13.80
2022-10-11T03:25:03.988Z,12.70
2022-10-11T03:27:32.104Z,15.18
2022-10-11T03:29:59.090Z,12.38
2022-10-11T03:32:26.284Z,14.30
2022-10-11T03:34:53.229Z,14.57
2022-10-11T03:37:20.256Z,12.85
2022-10-11T03:39:47.166Z,17.73
2022-10-11T03:42:14.657Z,17.23
2022-10-11T03:44:42.214Z,16.95
2022-10-11T03:47:09.802Z,15.63
2022-10-11T03:49:41.310Z,11.65
2022-10-11T03:52:10.945Z,10.15
2022-10-11T03:54:37.909Z,16.23
2022-10-11T03:57:04.858Z,16.95
2022-10-11T03:59:31.834Z,17.42
2022-10-11T04:01:58.786Z,17.73
2022-10-11T04:04:25.737Z,12.68
2022-10-11T04:06:52.659Z,12.32
2022-10-11T04:09:19.612Z,18.50
2022-10-11T04:11:46.553Z,14.88
2022-10-11T04:14:13.497Z,14.68
2022-10-11T04:16:41.110Z,9.98
2022-10-11T04:19:07.998Z,14.90
2022-10-11T04:21:34.995Z,13.18
2022-10-11T04:24:01.995Z,16.67
2022-10-11T04:26:28.878Z,10.88
2022-10-11T04:28:55.783Z,16.02
2022-10-11T04:31:23.797Z,13.18
2022-10-11T04:33:50.798Z,7.78
2022-10-11T04:36:17.796Z,13.63
2022-10-11T04:38:44.691Z,10.82
2022-10-11T04:41:14.157Z,9.25
2022-10-11T04:43:41.085Z,11.93
2022-10-11T04:46:09.348Z,15.30
2022-10-11T04:48:36.854Z,15.13
2022-10-11T04:51:03.972Z,18.40
2022-10-11T04:53:30.901Z,12.48
2022-10-11T04:56:05.044Z,8.15
2022-10-11T04:58:34.618Z,10.35
2022-10-11T05:01:01.573Z,13.32
2022-10-11T05:03:28.569Z,9.68
2022-10-11T05:05:55.982Z,11.20
2022-10-11T05:08:25.833Z,11.00
2022-10-11T05:11:01.975Z,19.05
2022-10-11T05:13:30.397Z,8.48
2022-10-11T05:15:57.955Z,14.57
2022-10-11T05:18:25.330Z,12.02
2022-10-11T05:21:14.591Z,12.52
2022-10-11T05:23:41.542Z,10.10
2022-10-11T05:26:08.973Z,9.70
2022-10-11T05:28:36.084Z,11.05
2022-10-11T05:31:03.385Z,13.30
2022-10-11T05:33:31.293Z,17.20
2022-10-11T05:35:58.275Z,14.55
2022-10-11T05:38:25.182Z,12.35
2022-10-11T05:40:52.476Z,11.73
2022-10-11T05:43:19.384Z,10.50
2022-10-11T05:45:46.596Z,17.83
2022-10-11T05:48:13.478Z,10.35
2022-10-11T05:50:40.684Z,17.17
2022-10-11T05:53:07.630Z,9.00
2022-10-11T05:55:42.844Z,14.25
2022-10-11T05:58:15.138Z,8.27
2022-10-11T06:00:42.181Z,8.40
2022-10-11T06:03:11.746Z,12.32
2022-10-11T06:05:39.156Z,14.40
2022-10-11T06:08:07.227Z,12.20
2022-10-11T06:10:35.147Z,13.45
2022-10-11T06:13:02.027Z,12.05
2022-10-11T06:15:30.432Z,10.48
2022-10-11T06:17:59.118Z,11.57
2022-10-11T06:20:26.892Z,14.20
2022-10-11T06:22:53.903Z,10.00
2022-10-11T06:25:20.900Z,9.35
2022-10-11T06:27:47.856Z,10.50
2022-10-11T06:30:15.190Z,9.30
2022-10-11T06:32:42.141Z,11.75
2022-10-11T06:35:09.404Z,10.55
2022-10-11T06:37:36.391Z,7.90
2022-10-11T06:40:04.097Z,9.27
2022-10-11T06:42:30.967Z,14.93
2022-10-11T06:44:57.922Z,11.48
2022-10-11T06:47:24.884Z,17.60
2022-10-11T06:49:51.881Z,13.27
2022-10-11T06:52:18.795Z,14.27
2022-10-11T06:54:45.669Z,9.13
2022-10-11T06:57:12.645Z,15.15
2022-10-11T06:59:39.600Z,8.95
2022-10-11T07:02:07.263Z,9.45
2022-10-11T07:04:34.265Z,11.32
2022-10-11T07:07:01.450Z,10.63
2022-10-11T07:09:28.388Z,6.90
2022-10-11T07:11:55.621Z,8.55
2022-10-11T07:14:22.531Z,10.05
2022-10-11T07:16:49.405Z,8.80
2022-10-11T07:19:16.350Z,7.70
2022-10-11T07:21:43.380Z,10.98
2022-10-11T07:24:10.352Z,13.80
2022-10-11T07:26:38.880Z,10.80
2022-10-11T07:29:09.708Z,15.57
2022-10-11T07:31:39.785Z,13.13
2022-10-11T07:34:07.318Z,12.07
2022-10-11T07:36:34.508Z,11.73
2022-10-11T07:39:05.523Z,14.55
2022-10-11T07:41:32.542Z,8.37
2022-10-11T07:43:59.470Z,13.40
2022-10-11T07:46:26.449Z,13.07
2022-10-11T07:48:53.473Z,14.25
2022-10-11T07:51:22.949Z,15.73
2022-10-11T07:53:56.004Z,17.45
2022-10-11T07:56:28.116Z,16.17
2022-10-11T07:59:03.554Z,13.05
2022-10-11T08:01:31.334Z,9.50
2022-10-11T08:03:59.312Z,17.58
2022-10-11T08:06:33.684Z,16.80
2022-10-11T08:09:01.694Z,15.93
2022-10-11T08:11:35.903Z,17.05
2022-10-11T08:14:08.759Z,16.65
2022-10-11T08:16:38.360Z,11.75
2022-10-11T08:19:06.924Z,14.60
2022-10-11T08:21:34.778Z,13.63
2022-10-11T08:24:04.207Z,21.27
2022-10-11T08:26:31.912Z,16.95
2022-10-11T08:29:03.921Z,15.90
2022-10-11T08:31:35.377Z,15.80
2022-10-11T08:34:02.840Z,26.10
2022-10-11T08:36:30.024Z,19.30
2022-10-11T08:38:57.823Z,18.80
2022-10-11T08:42:00.940Z,15.95
2022-10-11T08:45:09.493Z,23.25
2022-10-11T08:47:40.158Z,26.75
2022-10-11T08:50:17.367Z,27.70
2022-10-11T08:53:26.731Z,19.27
2022-10-11T08:55:55.405Z,22.27
2022-10-11T08:58:41.608Z,21.25
2022-10-11T09:01:18.758Z,17.42
2022-10-11T09:03:48.192Z,25.55
2022-10-11T09:06:49.051Z,20.88
2022-10-11T09:09:31.646Z,21.30
2022-10-11T09:12:33.528Z,21.80
2022-10-11T09:15:16.111Z,22.60
2022-10-11T09:18:30.850Z,18.77
2022-10-11T09:21:32.900Z,18.75
2022-10-11T09:24:21.834Z,17.15
2022-10-11T09:26:57.059Z,19.65
2022-10-11T09:30:10.068Z,36.17
2022-10-11T09:32:41.526Z,16.83
2022-10-11T09:35:18.700Z,18.48
2022-10-11T09:38:06.138Z,16.13
2022-10-11T09:40:58.837Z,16.45
2022-10-11T09:43:25.911Z,14.10
2022-10-11T09:45:52.998Z,16.08
2022-10-11T09:48:28.819Z,17.92
2022-10-11T09:51:04.132Z,22.20
2022-10-11T09:54:02.117Z,19.27
2022-10-11T09:56:32.070Z,18.50
2022-10-11T09:59:33.552Z,18.48
2022-10-11T10:02:20.878Z,12.80
2022-10-11T10:04:55.087Z,13.73
2022-10-11T10:07:22.962Z,19.50
2022-10-11T10:09:50.922Z,15.65
2022-10-11T10:12:30.547Z,14.07
2022-10-11T10:15:13.518Z,10.57
2022-10-11T10:17:52.617Z,11.27
2022-10-11T10:20:31.592Z,11.57
2022-10-11T10:23:32.175Z,16.65
2022-10-11T10:26:21.153Z,14.63
2022-10-11T10:29:09.007Z,12.10
2022-10-11T10:32:13.950Z,10.80
2022-10-11T10:35:29.142Z,5.78
2022-10-11T10:38:11.441Z,15.77
2022-10-11T10:40:43.505Z,11.35
2022-10-11T10:43:17.660Z,10.23
2022-10-11T10:46:20.994Z,12.65
2022-10-11T10:52:43.692Z,8.45
2022-10-11T10:55:39.162Z,8.98
2022-10-11T10:58:18.665Z,9.55
2022-10-11T11:00:53.426Z,8.68
2022-10-11T11:03:32.203Z,10.32
2022-10-11T11:06:19.948Z,8.40
2022-10-11T11:09:42.829Z,11.30
2022-10-11T11:12:31.851Z,9.38
2022-10-11T11:15:41.700Z,9.18
2022-10-11T11:18:29.733Z,8.02
2022-10-11T11:21:05.468Z,9.75
2022-10-11T11:23:47.995Z,8.70
2022-10-11T11:26:24.640Z,9.75
2022-10-11T11:29:45.126Z,8.98
2022-10-11T11:32:40.276Z,8.57
2022-10-11T11:35:38.462Z,8.40
2022-10-11T11:38:51.657Z,8.77
2022-10-11T11:41:28.011Z,8.90
2022-10-11T11:44:28.699Z,10.60
2022-10-11T11:47:10.502Z,10.25
2022-10-11T11:49:45.319Z,6.68
2022-10-11T11:52:44.201Z,7.45
2022-10-11T11:55:24.060Z,7.68
2022-10-11T11:58:25.318Z,10.43
2022-10-11T12:01:31.460Z,13.23
2022-10-11T12:04:07.723Z,8.75
2022-10-11T12:06:43.729Z,7.97
2022-10-11T12:09:22.785Z,7.90
2022-10-11T12:11:57.768Z,8.60
2022-10-11T12:14:34.312Z,6.25
2022-10-11T12:17:19.360Z,8.05
2022-10-11T12:20:20.912Z,6.53
2022-10-11T12:22:58.416Z,9.50
2022-10-11T12:25:33.191Z,12.90
2022-10-11T12:28:40.101Z,11.50
2022-10-11T12:31:30.224Z,7.97
2022-10-11T12:34:09.022Z,7.57
2022-10-11T12:36:41.649Z,6.95
2022-10-11T12:39:20.722Z,10.93
2022-10-11T12:41:47.689Z,13.55
2022-10-11T12:44:26.770Z,7.50
2022-10-11T12:46:53.836Z,9.10
2022-10-11T12:49:44.756Z,8.68
2022-10-11T12:52:17.886Z,6.53
2022-10-11T12:55:25.075Z,7.60
2022-10-11T12:58:01.566Z,10.68
2022-10-11T13:00:33.831Z,6.15
2022-10-11T13:03:43.707Z,6.75
2022-10-11T13:06:25.150Z,6.45
2022-10-11T13:08:57.148Z,5.03
2022-10-11T13:14:17.483Z,9.98
2022-10-11T13:17:02.301Z,5.88
2022-10-11T13:19:37.810Z,6.20
2022-10-11T13:22:16.711Z,8.15
2022-10-11T13:24:43.860Z,9.25
2022-10-11T13:27:21.401Z,8.43
2022-10-11T13:29:51.103Z,7.60
2022-10-11T13:32:24.481Z,7.95
2022-10-11T13:35:00.782Z,5.10
2022-10-11T13:37:29.469Z,8.95
2022-10-11T13:39:57.850Z,6.70
2022-10-11T13:42:42.869Z,11.18
2022-10-11T13:45:13.441Z,5.95
2022-10-11T13:47:40.752Z,4.95
2022-10-11T13:50:35.413Z,5.93
2022-10-11T13:53:09.832Z,5.88
2022-10-11T13:55:51.166Z,6.47
2022-10-11T13:58:32.767Z,6.90
2022-10-11T14:01:17.061Z,7.80
2022-10-11T14:03:58.659Z,7.93
2022-10-11T14:06:52.832Z,6.70
2022-10-11T14:09:21.805Z,4.38
2022-10-11T14:11:49.567Z,3.20
2022-10-11T14:14:35.296Z,4.63
2022-10-11T14:17:19.561Z,8.27
2022-10-11T14:20:10.283Z,6.30
2022-10-11T14:22:38.817Z,9.80
2022-10-11T14:25:06.254Z,9.40
2022-10-11T14:27:33.408Z,4.95
2022-10-11T14:30:24.466Z,11.38
2022-10-11T14:32:50.425Z,9.05
2022-10-11T14:35:18.093Z,6.60
2022-10-11T14:37:45.494Z,10.60
2022-10-11T14:40:29.057Z,8.18
2022-10-11T14:42:56.954Z,10.20
2022-10-11T14:45:24.213Z,6.07
2022-10-11T14:47:51.878Z,7.53
2022-10-11T14:50:58.344Z,8.93
2022-10-11T14:53:25.764Z,10.93
2022-10-11T14:55:53.377Z,8.73
2022-10-11T14:58:20.444Z,5.55
2022-10-11T15:00:47.944Z,24.65
2022-10-11T15:03:14.977Z,11.65
2022-10-11T15:05:42.066Z,9.00
2022-10-11T15:08:09.072Z,5.75
2022-10-11T15:10:40.874Z,5.75
2022-10-11T15:15:40.609Z,12.43
2022-10-11T15:20:43.563Z,5.50
2022-10-11T15:23:11.457Z,13.52
2022-10-11T15:25:41.363Z,5.90
2022-10-11T15:28:14.809Z,10.30
2022-10-11T15:30:42.047Z,7.75
2022-10-11T15:33:09.413Z,8.95
2022-10-11T15:35:36.543Z,5.93
2022-10-11T15:38:03.977Z,6.15
2022-10-11T15:40:36.977Z,9.27
2022-10-11T15:43:04.934Z,6.05
2022-10-11T15:45:32.219Z,7.75
2022-10-11T15:47:59.544Z,7.70
2022-10-11T15:50:38.101Z,8.60
2022-10-11T15:53:09.358Z,12.80
2022-10-11T15:55:40.308Z,6.68
2022-10-11T15:58:16.486Z,13.53
2022-10-11T16:00:45.790Z,7.00
2022-10-11T16:03:15.307Z,10.75
2022-10-11T16:05:43.671Z,7.95
2022-10-11T16:08:11.710Z,6.75
2022-10-11T16:10:39.981Z,7.90
2022-10-11T16:13:08.326Z,6.57
2022-10-11T16:15:38.804Z,13.38
2022-10-11T16:18:07.899Z,8.98
2022-10-11T16:20:42.324Z,10.80
2022-10-11T16:23:10.569Z,6.72
2022-10-11T16:25:38.002Z,8.60
2022-10-11T16:28:05.874Z,11.57
2022-10-11T16:30:32.900Z,9.40
2022-10-11T16:32:59.978Z,10.60
2022-10-11T16:35:32.287Z,6.93
2022-10-11T16:38:00.810Z,7.95
2022-10-11T16:40:30.179Z,6.13
2022-10-11T16:42:57.310Z,10.77
2022-10-11T16:45:24.752Z,11.32
2022-10-11T16:47:52.217Z,13.38
2022-10-11T16:50:19.326Z,10.00
2022-10-11T16:52:46.303Z,6.57
2022-10-11T16:55:13.516Z,6.00
2022-10-11T16:57:40.554Z,12.23
2022-10-11T17:00:10.354Z,13.35
2022-10-11T17:02:37.337Z,10.98
2022-10-11T17:05:05.104Z,15.82
2022-10-11T17:07:32.262Z,8.15
2022-10-11T17:10:01.127Z,9.27
2022-10-11T17:12:28.574Z,12.98
2022-10-11T17:14:56.236Z,4.50
2022-10-11T17:17:23.752Z,8.73
2022-10-11T17:19:50.816Z,8.38
2022-10-11T17:22:19.833Z,6.38
2022-10-11T17:24:47.057Z,9.80
2022-10-11T17:27:14.120Z,8.15
2022-10-11T17:29:41.255Z,4.82
2022-10-11T17:32:08.374Z,4.35
2022-10-11T17:34:35.559Z,5.72
2022-10-11T17:37:02.657Z,8.57
2022-10-11T17:39:29.778Z,7.05
2022-10-11T17:41:56.910Z,8.70
2022-10-11T17:44:24.014Z,5.95
2022-10-11T17:46:51.073Z,5.72
2022-10-11T17:49:18.334Z,6.63
2022-10-11T17:51:45.475Z,8.23
2022-10-11T17:54:13.080Z,8.23
2022-10-11T17:56:43.562Z,6.13
2022-10-11T17:59:21.285Z,6.60
2022-10-11T18:01:50.478Z,8.70
2022-10-11T18:04:19.907Z,9.57
2022-10-11T18:06:49.097Z,12.15
2022-10-11T18:09:18.946Z,8.40
2022-10-11T18:11:47.153Z,6.30
2022-10-11T18:14:15.263Z,7.75
2022-10-11T18:16:42.918Z,7.07
2022-10-11T18:19:13.034Z,9.20
2022-10-11T18:21:41.056Z,6.38
2022-10-11T18:24:15.202Z,9.93
2022-10-11T18:26:44.221Z,11.70
2022-10-11T18:29:12.581Z,11.80
2022-10-11T18:31:40.422Z,15.35
2022-10-11T18:34:10.797Z,5.07
2022-10-11T18:36:38.962Z,4.60
2022-10-11T18:39:08.315Z,11.45
2022-10-11T18:41:35.855Z,10.27
2022-10-11T18:44:07.258Z,6.85
2022-10-11T18:46:35.616Z,10.98
2022-10-11T18:49:02.868Z,5.43
2022-10-11T18:51:40.028Z,6.65
2022-10-11T18:54:10.920Z,10.18
2022-10-11T18:56:39.207Z,5.95
2022-10-11T18:59:07.619Z,6.15
2022-10-11T19:01:39.939Z,10.48
2022-10-11T19:04:09.634Z,7.60
2022-10-11T19:06:41.398Z,6.80
2022-10-11T19:09:13.218Z,5.47
2022-10-11T19:11:41.072Z,10.32
2022-10-11T19:14:17.530Z,10.23
2022-10-11T19:16:51.564Z,7.03
2022-10-11T19:19:27.010Z,8.98
2022-10-11T19:21:58.365Z,7.28
2022-10-11T19:24:30.495Z,12.70
2022-10-11T19:27:02.205Z,10.07
2022-10-11T19:29:30.502Z,5.78
2022-10-11T19:32:00.596Z,10.52
2022-10-11T19:34:28.628Z,9.57
2022-10-11T19:36:56.698Z,8.43
2022-10-11T19:39:24.869Z,11.77
2022-10-11T19:41:55.147Z,14.00
2022-10-11T19:44:22.278Z,12.10
2022-10-11T19:46:52.070Z,9.00
2022-10-11T19:49:22.767Z,9.10
2022-10-11T19:51:50.740Z,11.73
2022-10-11T19:54:18.398Z,7.25
2022-10-11T19:56:45.359Z,12.85
2022-10-11T19:59:13.474Z,12.82
2022-10-11T20:01:41.911Z,9.32
2022-10-11T20:04:22.941Z,9.73
2022-10-11T20:06:54.896Z,9.07
2022-10-11T20:09:30.611Z,10.95
2022-10-11T20:11:58.692Z,7.82
2022-10-11T20:14:25.944Z,9.80
2022-10-11T20:16:53.595Z,9.45
2022-10-11T20:19:25.011Z,8.93
2022-10-11T20:21:55.156Z,8.80
2022-10-11T20:24:22.245Z,9.75
2022-10-11T20:26:49.265Z,6.85
2022-10-11T20:29:16.825Z,9.82
2022-10-11T20:31:43.897Z,7.13
2022-10-11T20:34:11.602Z,7.15
2022-10-11T20:36:38.640Z,10.27
2022-10-11T20:39:06.726Z,9.48
2022-10-11T20:41:37.269Z,5.88
2022-10-11T20:44:06.057Z,9.27
2022-10-11T20:46:37.458Z,7.03
2022-10-11T20:49:08.760Z,9.35
2022-10-11T20:51:38.393Z,11.35
2022-10-11T20:54:05.834Z,8.93
2022-10-11T20:56:33.807Z,9.57
2022-10-11T20:59:01.554Z,10.05
2022-10-11T21:01:33.583Z,11.52
2022-10-11T21:04:02.139Z,8.18
2022-10-11T21:06:31.468Z,7.10
2022-10-11T21:09:00.181Z,12.93
2022-10-11T21:11:35.637Z,10.20
2022-10-11T21:14:05.170Z,9.13
2022-10-11T21:16:33.754Z,10.60
2022-10-11T21:19:04.310Z,9.60
2022-10-11T21:21:31.700Z,6.40
2022-10-11T21:24:01.436Z,9.57
2022-10-11T21:26:30.502Z,4.60
2022-10-11T21:28:59.425Z,6.80
2022-10-11T21:31:29.741Z,5.63
2022-10-11T21:34:00.115Z,6.55
2022-10-11T21:36:27.330Z,7.28
2022-10-11T21:38:54.965Z,10.40
2022-10-11T21:41:25.482Z,6.22
2022-10-11T21:43:53.636Z,6.20
2022-10-11T21:46:47.595Z,5.72
2022-10-11T21:49:14.794Z,4.25
2022-10-11T21:51:41.831Z,7.18
2022-10-11T21:54:08.912Z,7.05
2022-10-11T21:56:35.925Z,13.82
2022-10-11T21:59:06.514Z,7.90
2022-10-11T22:01:39.561Z,13.32
2022-10-11T22:04:09.834Z,7.72
2022-10-11T22:06:37.854Z,8.80
2022-10-11T22:09:06.495Z,9.43
2022-10-11T22:11:33.624Z,6.28
2022-10-11T22:14:02.187Z,9.23
2022-10-11T22:16:29.170Z,4.60
2022-10-11T22:18:56.220Z,9.48
2022-10-11T22:21:23.973Z,6.30
2022-10-11T22:23:53.738Z,4.18
2022-10-11T22:26:30.854Z,6.07
2022-10-11T22:28:59.526Z,2.67
2022-10-11T22:31:28.254Z,6.72
2022-10-11T22:33:57.588Z,5.38
2022-10-11T22:36:25.303Z,4.00
2022-10-11T22:38:53.425Z,10.00
2022-10-11T22:41:20.573Z,4.85
2022-10-11T22:43:47.606Z,4.95
2022-10-11T22:46:14.617Z,3.38
2022-10-11T22:48:41.702Z,4.95
2022-10-11T22:51:08.738Z,4.55
2022-10-11T22:53:35.976Z,6.35
2022-10-11T22:56:03.087Z,5.20
2022-10-11T22:58:30.131Z,5.78
2022-10-11T23:00:57.111Z,5.63
2022-10-11T23:03:24.270Z,18.17
2022-10-11T23:05:56.865Z,4.80
2022-10-11T23:08:24.571Z,5.95
2022-10-11T23:10:51.975Z,3.33
2022-10-11T23:13:19.562Z,6.13
2022-10-11T23:15:46.676Z,8.15
2022-10-11T23:18:16.213Z,5.38
2022-10-11T23:20:43.185Z,5.97
2022-10-11T23:23:10.139Z,11.35
2022-10-11T23:25:37.154Z,5.38
2022-10-11T23:28:04.374Z,4.35
2022-10-11T23:30:31.557Z,9.18
2022-10-11T23:32:58.706Z,5.95
2022-10-11T23:35:25.860Z,6.30
2022-10-11T23:37:55.928Z,5.85
2022-10-11T23:40:22.901Z,8.48
2022-10-11T23:42:49.952Z,6.38
2022-10-11T23:45:17.078Z,11.68
2022-10-11T23:47:44.104Z,8.75
2022-10-11T23:50:11.141Z,6.10
2022-10-11T23:52:38.147Z,7.38
2022-10-11T23:55:05.589Z,6.90
2022-10-11T23:57:32.736Z,6.20
2022-10-11T23:59:59.973Z,7.20
